Portland, Oregon
Traffic Map
Current Weather Conditions
Portland, Oregon
Broken Clouds
Broken Clouds
18°
Feels Like: 18°
Wind Chill: 18° Ceiling: 23000
Heat Index: 18° Visibility: 10mi
Dew Point: 11° Wind: 12mph
Humidity: 63% Direction: 270° (W)
Pressure: 30.11in Gusts: 0mph
Raw Report DataKPDX 240153Z 27010KT 10SM FEW055 SCT090 BKN230 18/11 A3011 RMK AO2 WSHFT 0111 SLP196 TCU DSNT N-E T01830111
Traffic Incident Summary
Active as of:
Severity:
Category:
InformationThere was an issue retrieving the traffic information for this location. Please try a different location or try again shortly.
Advertisements
Track Severe Weather on mobile